sensor_id;sensor_type;location;lat;lon;timestamp;temperature;humidity
10263;DHT22;5177;50.068;8.156;2023-02-28T00:00:38;1.10;99.90
10263;DHT22;5177;50.068;8.156;2023-02-28T00:03:04;1.10;99.90
10263;DHT22;5177;50.068;8.156;2023-02-28T00:05:30;1.10;99.90
10263;DHT22;5177;50.068;8.156;2023-02-28T00:07:55;1.10;99.90
10263;DHT22;5177;50.068;8.156;2023-02-28T00:10:22;1.10;99.90
10263;DHT22;5177;50.068;8.156;2023-02-28T00:12:49;1.10;99.90
10263;DHT22;5177;50.068;8.156;2023-02-28T00:15:15;1.20;99.90
10263;DHT22;5177;50.068;8.156;2023-02-28T00:17:41;1.20;99.90
10263;DHT22;5177;50.068;8.156;2023-02-28T00:20:06;1.30;99.90
10263;DHT22;5177;50.068;8.156;2023-02-28T00:22:37;1.30;99.90
10263;DHT22;5177;50.068;8.156;2023-02-28T00:25:03;1.30;99.90
10263;DHT22;5177;50.068;8.156;2023-02-28T00:27:30;1.30;99.90
10263;DHT22;5177;50.068;8.156;2023-02-28T00:29:55;1.40;99.90
10263;DHT22;5177;50.068;8.156;2023-02-28T00:32:21;1.50;99.90
10263;DHT22;5177;50.068;8.156;2023-02-28T00:34:46;1.50;99.90
10263;DHT22;5177;50.068;8.156;2023-02-28T00:37:12;1.50;99.90
10263;DHT22;5177;50.068;8.156;2023-02-28T00:39:38;1.60;99.90
10263;DHT22;5177;50.068;8.156;2023-02-28T00:42:03;1.60;99.90
10263;DHT22;5177;50.068;8.156;2023-02-28T00:44:29;1.60;99.90
10263;DHT22;5177;50.068;8.156;2023-02-28T00:46:55;1.60;99.90
10263;DHT22;5177;50.068;8.156;2023-02-28T00:49:21;1.60;99.90
10263;DHT22;5177;50.068;8.156;2023-02-28T00:51:47;1.60;99.90
10263;DHT22;5177;50.068;8.156;2023-02-28T00:54:13;1.60;99.90
10263;DHT22;5177;50.068;8.156;2023-02-28T00:56:38;1.60;99.90
10263;DHT22;5177;50.068;8.156;2023-02-28T00:59:04;1.60;99.90
10263;DHT22;5177;50.068;8.156;2023-02-28T01:01:30;1.60;99.90
10263;DHT22;5177;50.068;8.156;2023-02-28T01:03:55;1.60;99.90
10263;DHT22;5177;50.068;8.156;2023-02-28T01:06:21;1.60;99.90
10263;DHT22;5177;50.068;8.156;2023-02-28T01:08:46;1.60;99.90
10263;DHT22;5177;50.068;8.156;2023-02-28T01:11:13;1.60;99.90
10263;DHT22;5177;50.068;8.156;2023-02-28T01:13:40;1.60;99.90
10263;DHT22;5177;50.068;8.156;2023-02-28T01:16:05;1.50;99.90
10263;DHT22;5177;50.068;8.156;2023-02-28T01:18:31;1.50;99.90
10263;DHT22;5177;50.068;8.156;2023-02-28T01:20:56;1.50;99.90
10263;DHT22;5177;50.068;8.156;2023-02-28T01:23:22;1.40;99.90
10263;DHT22;5177;50.068;8.156;2023-02-28T01:25:49;1.40;99.90
10263;DHT22;5177;50.068;8.156;2023-02-28T01:28:14;1.40;99.90
10263;DHT22;5177;50.068;8.156;2023-02-28T01:30:40;1.30;99.90
10263;DHT22;5177;50.068;8.156;2023-02-28T01:33:06;1.30;99.90
10263;DHT22;5177;50.068;8.156;2023-02-28T01:35:32;1.20;99.90
10263;DHT22;5177;50.068;8.156;2023-02-28T01:37:57;1.20;99.90
10263;DHT22;5177;50.068;8.156;2023-02-28T01:40:23;1.10;99.90
10263;DHT22;5177;50.068;8.156;2023-02-28T01:42:49;1.00;99.90
10263;DHT22;5177;50.068;8.156;2023-02-28T01:45:30;1.00;99.90
10263;DHT22;5177;50.068;8.156;2023-02-28T01:48:03;1.00;99.90
10263;DHT22;5177;50.068;8.156;2023-02-28T01:50:31;0.90;99.90
10263;DHT22;5177;50.068;8.156;2023-02-28T01:52:59;0.90;99.90
10263;DHT22;5177;50.068;8.156;2023-02-28T01:55:25;0.90;99.90
10263;DHT22;5177;50.068;8.156;2023-02-28T01:57:56;0.80;99.90
10263;DHT22;5177;50.068;8.156;2023-02-28T02:00:23;0.80;99.90
10263;DHT22;5177;50.068;8.156;2023-02-28T02:02:50;0.70;99.90
10263;DHT22;5177;50.068;8.156;2023-02-28T02:05:17;0.70;99.90
10263;DHT22;5177;50.068;8.156;2023-02-28T02:07:43;0.60;99.90
10263;DHT22;5177;50.068;8.156;2023-02-28T02:12:45;0.60;99.90
10263;DHT22;5177;50.068;8.156;2023-02-28T02:15:22;0.60;99.90
10263;DHT22;5177;50.068;8.156;2023-02-28T02:17:50;0.60;99.90
10263;DHT22;5177;50.068;8.156;2023-02-28T02:20:57;0.60;99.90
10263;DHT22;5177;50.068;8.156;2023-02-28T02:25:52;0.60;99.90
10263;DHT22;5177;50.068;8.156;2023-02-28T02:36:33;0.50;99.90
10263;DHT22;5177;50.068;8.156;2023-02-28T02:44:15;0.40;99.90
10263;DHT22;5177;50.068;8.156;2023-02-28T02:46:44;0.40;99.90
10263;DHT22;5177;50.068;8.156;2023-02-28T02:49:11;0.40;99.90
10263;DHT22;5177;50.068;8.156;2023-02-28T02:51:38;0.30;99.90
10263;DHT22;5177;50.068;8.156;2023-02-28T02:54:11;0.30;99.90
10263;DHT22;5177;50.068;8.156;2023-02-28T02:56:39;0.30;99.90
10263;DHT22;5177;50.068;8.156;2023-02-28T02:59:07;0.30;99.90
10263;DHT22;5177;50.068;8.156;2023-02-28T03:01:34;0.30;99.90
10263;DHT22;5177;50.068;8.156;2023-02-28T03:04:01;0.30;99.90
10263;DHT22;5177;50.068;8.156;2023-02-28T03:06:28;0.30;99.90
10263;DHT22;5177;50.068;8.156;2023-02-28T03:08:53;0.20;99.90
10263;DHT22;5177;50.068;8.156;2023-02-28T03:11:19;0.30;99.90
10263;DHT22;5177;50.068;8.156;2023-02-28T03:13:59;0.30;99.90
10263;DHT22;5177;50.068;8.156;2023-02-28T03:26:36;0.20;99.90
10263;DHT22;5177;50.068;8.156;2023-02-28T03:29:24;0.20;99.90
10263;DHT22;5177;50.068;8.156;2023-02-28T03:31:57;0.20;99.90
10263;DHT22;5177;50.068;8.156;2023-02-28T03:34:32;0.20;99.90
10263;DHT22;5177;50.068;8.156;2023-02-28T03:37:07;0.20;99.90
10263;DHT22;5177;50.068;8.156;2023-02-28T03:39:35;0.20;99.90
10263;DHT22;5177;50.068;8.156;2023-02-28T03:42:04;0.20;99.90
10263;DHT22;5177;50.068;8.156;2023-02-28T03:44:36;0.20;99.90
10263;DHT22;5177;50.068;8.156;2023-02-28T03:47:04;0.10;99.90
10263;DHT22;5177;50.068;8.156;2023-02-28T03:49:32;0.20;99.90
10263;DHT22;5177;50.068;8.156;2023-02-28T03:52:02;0.20;99.90
10263;DHT22;5177;50.068;8.156;2023-02-28T03:54:29;0.10;99.90
10263;DHT22;5177;50.068;8.156;2023-02-28T03:57:07;0.10;99.90
10263;DHT22;5177;50.068;8.156;2023-02-28T03:59:38;0.10;99.90
10263;DHT22;5177;50.068;8.156;2023-02-28T04:02:04;0.10;99.90
10263;DHT22;5177;50.068;8.156;2023-02-28T04:04:30;0.10;99.90
10263;DHT22;5177;50.068;8.156;2023-02-28T04:07:29;0.10;99.90
10263;DHT22;5177;50.068;8.156;2023-02-28T04:09:47;0.10;99.90
10263;DHT22;5177;50.068;8.156;2023-02-28T04:12:13;0.10;99.90
10263;DHT22;5177;50.068;8.156;2023-02-28T04:14:38;0.10;99.90
10263;DHT22;5177;50.068;8.156;2023-02-28T04:17:04;0.10;99.90
10263;DHT22;5177;50.068;8.156;2023-02-28T04:19:29;0.10;99.90
10263;DHT22;5177;50.068;8.156;2023-02-28T04:21:55;0.10;99.90
10263;DHT22;5177;50.068;8.156;2023-02-28T04:24:21;0.20;99.90
10263;DHT22;5177;50.068;8.156;2023-02-28T04:26:48;0.20;99.90
10263;DHT22;5177;50.068;8.156;2023-02-28T04:29:18;0.20;99.90
10263;DHT22;5177;50.068;8.156;2023-02-28T04:31:44;0.20;99.90
10263;DHT22;5177;50.068;8.156;2023-02-28T04:34:09;0.20;99.90
10263;DHT22;5177;50.068;8.156;2023-02-28T04:36:35;0.20;99.90
10263;DHT22;5177;50.068;8.156;2023-02-28T04:39:00;0.20;99.90
10263;DHT22;5177;50.068;8.156;2023-02-28T04:41:26;0.20;99.90
10263;DHT22;5177;50.068;8.156;2023-02-28T04:43:51;0.20;99.90
10263;DHT22;5177;50.068;8.156;2023-02-28T04:46:17;0.20;99.90
10263;DHT22;5177;50.068;8.156;2023-02-28T04:48:43;0.20;99.90
10263;DHT22;5177;50.068;8.156;2023-02-28T04:51:13;0.20;99.90
10263;DHT22;5177;50.068;8.156;2023-02-28T04:53:40;0.10;99.90
10263;DHT22;5177;50.068;8.156;2023-02-28T04:56:06;0.10;99.90
10263;DHT22;5177;50.068;8.156;2023-02-28T04:58:32;0.10;99.90
10263;DHT22;5177;50.068;8.156;2023-02-28T05:01:05;0.10;99.90
10263;DHT22;5177;50.068;8.156;2023-02-28T05:03:38;0.10;99.90
10263;DHT22;5177;50.068;8.156;2023-02-28T05:06:06;0.10;99.90
10263;DHT22;5177;50.068;8.156;2023-02-28T05:08:31;0.10;99.90
10263;DHT22;5177;50.068;8.156;2023-02-28T05:10:57;0.10;99.90
10263;DHT22;5177;50.068;8.156;2023-02-28T05:13:22;0.10;99.90
10263;DHT22;5177;50.068;8.156;2023-02-28T05:15:48;0.20;99.90
10263;DHT22;5177;50.068;8.156;2023-02-28T05:18:13;0.10;99.90
10263;DHT22;5177;50.068;8.156;2023-02-28T05:20:39;0.20;99.90
10263;DHT22;5177;50.068;8.156;2023-02-28T05:23:04;0.20;99.90
10263;DHT22;5177;50.068;8.156;2023-02-28T05:25:30;0.20;99.90
10263;DHT22;5177;50.068;8.156;2023-02-28T05:27:55;0.20;99.90
10263;DHT22;5177;50.068;8.156;2023-02-28T05:30:21;0.10;99.90
10263;DHT22;5177;50.068;8.156;2023-02-28T05:32:49;0.20;99.90
10263;DHT22;5177;50.068;8.156;2023-02-28T05:35:14;0.20;99.90
10263;DHT22;5177;50.068;8.156;2023-02-28T05:37:40;0.10;99.90
10263;DHT22;5177;50.068;8.156;2023-02-28T05:40:06;0.10;99.90
10263;DHT22;5177;50.068;8.156;2023-02-28T05:42:32;0.10;99.90
10263;DHT22;5177;50.068;8.156;2023-02-28T05:44:58;0.20;99.90
10263;DHT22;5177;50.068;8.156;2023-02-28T05:47:24;0.20;99.90
10263;DHT22;5177;50.068;8.156;2023-02-28T05:49:49;0.20;99.90
10263;DHT22;5177;50.068;8.156;2023-02-28T05:52:15;0.10;99.90
10263;DHT22;5177;50.068;8.156;2023-02-28T05:54:40;0.20;99.90
10263;DHT22;5177;50.068;8.156;2023-02-28T05:57:06;0.20;99.90
10263;DHT22;5177;50.068;8.156;2023-02-28T05:59:32;0.10;99.90
10263;DHT22;5177;50.068;8.156;2023-02-28T06:01:58;0.10;99.90
10263;DHT22;5177;50.068;8.156;2023-02-28T06:04:23;0.10;99.90
10263;DHT22;5177;50.068;8.156;2023-02-28T06:06:49;0.10;99.90
10263;DHT22;5177;50.068;8.156;2023-02-28T06:09:15;0.10;99.90
10263;DHT22;5177;50.068;8.156;2023-02-28T06:11:41;0.10;99.90
10263;DHT22;5177;50.068;8.156;2023-02-28T06:14:06;0.00;99.90
10263;DHT22;5177;50.068;8.156;2023-02-28T06:16:33;0.00;99.90
10263;DHT22;5177;50.068;8.156;2023-02-28T06:18:59;0.00;99.90
10263;DHT22;5177;50.068;8.156;2023-02-28T06:21:25;0.00;99.90
10263;DHT22;5177;50.068;8.156;2023-02-28T06:23:52;0.00;99.90
10263;DHT22;5177;50.068;8.156;2023-02-28T06:26:18;0.00;99.90
10263;DHT22;5177;50.068;8.156;2023-02-28T06:28:43;0.00;99.90
10263;DHT22;5177;50.068;8.156;2023-02-28T06:31:10;0.00;99.90
10263;DHT22;5177;50.068;8.156;2023-02-28T06:33:36;0.20;99.90
10263;DHT22;5177;50.068;8.156;2023-02-28T06:36:03;0.00;99.90
10263;DHT22;5177;50.068;8.156;2023-02-28T06:38:29;0.10;99.90
10263;DHT22;5177;50.068;8.156;2023-02-28T06:40:55;0.10;99.90
10263;DHT22;5177;50.068;8.156;2023-02-28T06:43:21;0.10;99.90
10263;DHT22;5177;50.068;8.156;2023-02-28T06:45:46;0.10;99.90
10263;DHT22;5177;50.068;8.156;2023-02-28T06:48:12;0.10;99.90
10263;DHT22;5177;50.068;8.156;2023-02-28T06:50:37;0.10;99.90
10263;DHT22;5177;50.068;8.156;2023-02-28T06:53:03;0.20;99.90
10263;DHT22;5177;50.068;8.156;2023-02-28T06:55:28;0.30;99.90
10263;DHT22;5177;50.068;8.156;2023-02-28T06:57:54;0.30;99.90
10263;DHT22;5177;50.068;8.156;2023-02-28T07:00:20;0.50;99.90
10263;DHT22;5177;50.068;8.156;2023-02-28T07:02:45;0.50;99.90
10263;DHT22;5177;50.068;8.156;2023-02-28T07:05:12;0.60;99.90
10263;DHT22;5177;50.068;8.156;2023-02-28T07:07:38;0.60;99.90
10263;DHT22;5177;50.068;8.156;2023-02-28T07:10:05;0.70;99.90
10263;DHT22;5177;50.068;8.156;2023-02-28T07:12:31;0.90;99.90
10263;DHT22;5177;50.068;8.156;2023-02-28T07:14:57;1.00;99.90
10263;DHT22;5177;50.068;8.156;2023-02-28T07:17:22;1.10;99.90
10263;DHT22;5177;50.068;8.156;2023-02-28T07:19:48;1.20;99.90
10263;DHT22;5177;50.068;8.156;2023-02-28T07:22:13;1.30;99.90
10263;DHT22;5177;50.068;8.156;2023-02-28T07:24:39;1.40;99.90
10263;DHT22;5177;50.068;8.156;2023-02-28T07:27:04;1.50;99.90
10263;DHT22;5177;50.068;8.156;2023-02-28T07:29:30;1.60;99.90
10263;DHT22;5177;50.068;8.156;2023-02-28T07:31:55;1.70;99.90
10263;DHT22;5177;50.068;8.156;2023-02-28T07:34:21;1.90;99.90
10263;DHT22;5177;50.068;8.156;2023-02-28T07:36:46;2.10;99.90
10263;DHT22;5177;50.068;8.156;2023-02-28T07:39:12;2.20;99.90
10263;DHT22;5177;50.068;8.156;2023-02-28T07:41:37;2.30;99.90
10263;DHT22;5177;50.068;8.156;2023-02-28T07:44:11;2.50;99.90
10263;DHT22;5177;50.068;8.156;2023-02-28T07:46:37;2.60;99.90
10263;DHT22;5177;50.068;8.156;2023-02-28T07:49:02;2.80;99.90
10263;DHT22;5177;50.068;8.156;2023-02-28T07:51:29;2.90;99.90
10263;DHT22;5177;50.068;8.156;2023-02-28T07:53:54;2.90;99.90
10263;DHT22;5177;50.068;8.156;2023-02-28T07:56:20;3.10;99.90
10263;DHT22;5177;50.068;8.156;2023-02-28T07:58:45;3.10;99.90
10263;DHT22;5177;50.068;8.156;2023-02-28T08:01:11;3.20;99.90
10263;DHT22;5177;50.068;8.156;2023-02-28T08:03:37;3.30;99.90
10263;DHT22;5177;50.068;8.156;2023-02-28T08:06:03;3.40;99.90
10263;DHT22;5177;50.068;8.156;2023-02-28T08:08:29;3.40;99.90
10263;DHT22;5177;50.068;8.156;2023-02-28T08:11:00;3.40;99.90
10263;DHT22;5177;50.068;8.156;2023-02-28T08:13:26;3.50;99.90
10263;DHT22;5177;50.068;8.156;2023-02-28T08:15:53;3.60;99.90
10263;DHT22;5177;50.068;8.156;2023-02-28T08:18:19;3.60;99.90
10263;DHT22;5177;50.068;8.156;2023-02-28T08:20:45;3.70;99.90
10263;DHT22;5177;50.068;8.156;2023-02-28T08:23:10;3.80;99.90
10263;DHT22;5177;50.068;8.156;2023-02-28T08:25:36;3.90;99.90
10263;DHT22;5177;50.068;8.156;2023-02-28T08:28:01;3.80;99.90
10263;DHT22;5177;50.068;8.156;2023-02-28T08:30:27;3.70;99.90
10263;DHT22;5177;50.068;8.156;2023-02-28T08:32:52;3.80;99.90
10263;DHT22;5177;50.068;8.156;2023-02-28T08:35:18;3.80;99.90
10263;DHT22;5177;50.068;8.156;2023-02-28T08:37:43;3.80;99.90
10263;DHT22;5177;50.068;8.156;2023-02-28T08:40:09;3.80;99.90
10263;DHT22;5177;50.068;8.156;2023-02-28T08:42:35;4.00;99.90
10263;DHT22;5177;50.068;8.156;2023-02-28T08:45:00;3.90;99.90
10263;DHT22;5177;50.068;8.156;2023-02-28T08:47:26;4.00;99.90
10263;DHT22;5177;50.068;8.156;2023-02-28T08:49:52;4.20;99.90
10263;DHT22;5177;50.068;8.156;2023-02-28T08:52:17;4.50;99.90
10263;DHT22;5177;50.068;8.156;2023-02-28T08:54:43;4.60;99.90
10263;DHT22;5177;50.068;8.156;2023-02-28T08:57:08;4.70;99.90
10263;DHT22;5177;50.068;8.156;2023-02-28T08:59:34;4.80;99.90
10263;DHT22;5177;50.068;8.156;2023-02-28T09:01:59;5.00;99.90
10263;DHT22;5177;50.068;8.156;2023-02-28T09:04:25;5.20;99.90
10263;DHT22;5177;50.068;8.156;2023-02-28T09:06:50;5.20;99.90
10263;DHT22;5177;50.068;8.156;2023-02-28T09:09:15;5.20;99.90
10263;DHT22;5177;50.068;8.156;2023-02-28T09:11:41;5.20;99.90
10263;DHT22;5177;50.068;8.156;2023-02-28T09:14:06;5.10;99.90
10263;DHT22;5177;50.068;8.156;2023-02-28T09:16:32;5.10;99.90
10263;DHT22;5177;50.068;8.156;2023-02-28T09:18:58;5.20;99.90
10263;DHT22;5177;50.068;8.156;2023-02-28T09:21:24;5.60;99.90
10263;DHT22;5177;50.068;8.156;2023-02-28T09:23:49;5.90;99.90
10263;DHT22;5177;50.068;8.156;2023-02-28T09:26:25;6.00;99.90
10263;DHT22;5177;50.068;8.156;2023-02-28T09:28:51;6.00;99.90
10263;DHT22;5177;50.068;8.156;2023-02-28T09:31:19;5.90;99.90
10263;DHT22;5177;50.068;8.156;2023-02-28T09:33:46;5.90;99.90
10263;DHT22;5177;50.068;8.156;2023-02-28T09:36:12;5.90;99.90
10263;DHT22;5177;50.068;8.156;2023-02-28T09:38:37;5.90;99.90
10263;DHT22;5177;50.068;8.156;2023-02-28T09:41:04;6.00;99.90
10263;DHT22;5177;50.068;8.156;2023-02-28T09:43:34;5.90;99.90
10263;DHT22;5177;50.068;8.156;2023-02-28T09:48:44;6.00;99.90
10263;DHT22;5177;50.068;8.156;2023-02-28T09:53:54;6.10;99.90
10263;DHT22;5177;50.068;8.156;2023-02-28T09:56:21;6.10;99.90
10263;DHT22;5177;50.068;8.156;2023-02-28T09:59:01;6.10;99.90
10263;DHT22;5177;50.068;8.156;2023-02-28T10:01:32;6.20;99.90
10263;DHT22;5177;50.068;8.156;2023-02-28T10:04:02;6.20;99.90
10263;DHT22;5177;50.068;8.156;2023-02-28T10:06:29;6.20;99.90
10263;DHT22;5177;50.068;8.156;2023-02-28T10:08:56;6.30;99.90
10263;DHT22;5177;50.068;8.156;2023-02-28T10:11:23;6.30;99.90
10263;DHT22;5177;50.068;8.156;2023-02-28T10:13:51;6.30;99.90
10263;DHT22;5177;50.068;8.156;2023-02-28T10:18:46;6.60;99.90
10263;DHT22;5177;50.068;8.156;2023-02-28T10:21:23;6.70;99.90
10263;DHT22;5177;50.068;8.156;2023-02-28T10:23:51;6.70;99.40
10263;DHT22;5177;50.068;8.156;2023-02-28T10:26:19;6.70;99.40
10263;DHT22;5177;50.068;8.156;2023-02-28T10:28:45;6.60;98.20
10263;DHT22;5177;50.068;8.156;2023-02-28T10:31:11;6.40;99.10
10263;DHT22;5177;50.068;8.156;2023-02-28T10:33:39;6.10;98.30
10263;DHT22;5177;50.068;8.156;2023-02-28T10:36:05;5.90;99.90
10263;DHT22;5177;50.068;8.156;2023-02-28T10:38:35;5.90;99.90
10263;DHT22;5177;50.068;8.156;2023-02-28T10:41:08;5.90;99.90
10263;DHT22;5177;50.068;8.156;2023-02-28T10:43:34;6.20;99.90
10263;DHT22;5177;50.068;8.156;2023-02-28T10:48:30;6.90;98.30
10263;DHT22;5177;50.068;8.156;2023-02-28T10:50:55;7.00;98.10
10263;DHT22;5177;50.068;8.156;2023-02-28T10:56:04;6.70;98.00
10263;DHT22;5177;50.068;8.156;2023-02-28T10:58:42;6.70;97.80
10263;DHT22;5177;50.068;8.156;2023-02-28T11:01:14;6.70;98.00
10263;DHT22;5177;50.068;8.156;2023-02-28T11:03:39;6.90;98.50
10263;DHT22;5177;50.068;8.156;2023-02-28T11:06:24;7.30;98.90
10263;DHT22;5177;50.068;8.156;2023-02-28T11:08:52;7.70;95.90
10263;DHT22;5177;50.068;8.156;2023-02-28T11:11:17;7.80;94.00
10263;DHT22;5177;50.068;8.156;2023-02-28T11:13:44;7.50;92.70
10263;DHT22;5177;50.068;8.156;2023-02-28T11:16:12;7.50;94.20
10263;DHT22;5177;50.068;8.156;2023-02-28T11:18:42;7.10;94.60
10263;DHT22;5177;50.068;8.156;2023-02-28T11:21:09;6.80;93.50
10263;DHT22;5177;50.068;8.156;2023-02-28T11:23:40;6.60;94.00
10263;DHT22;5177;50.068;8.156;2023-02-28T11:26:06;6.30;95.30
10263;DHT22;5177;50.068;8.156;2023-02-28T11:28:35;6.10;96.00
10263;DHT22;5177;50.068;8.156;2023-02-28T11:33:50;6.30;95.30
10263;DHT22;5177;50.068;8.156;2023-02-28T11:36:20;6.30;94.70
10263;DHT22;5177;50.068;8.156;2023-02-28T11:38:49;6.30;95.70
10263;DHT22;5177;50.068;8.156;2023-02-28T11:41:19;6.30;96.00
10263;DHT22;5177;50.068;8.156;2023-02-28T11:56:26;6.70;92.20
10263;DHT22;5177;50.068;8.156;2023-02-28T12:01:26;6.60;93.50
10263;DHT22;5177;50.068;8.156;2023-02-28T12:09:11;7.20;90.40
10263;DHT22;5177;50.068;8.156;2023-02-28T12:11:47;7.30;89.90
10263;DHT22;5177;50.068;8.156;2023-02-28T12:14:21;7.60;88.80
10263;DHT22;5177;50.068;8.156;2023-02-28T12:19:24;7.90;86.10
10263;DHT22;5177;50.068;8.156;2023-02-28T12:26:52;8.30;84.70
10263;DHT22;5177;50.068;8.156;2023-02-28T12:29:27;8.50;82.00
10263;DHT22;5177;50.068;8.156;2023-02-28T12:34:39;8.20;80.90
10263;DHT22;5177;50.068;8.156;2023-02-28T12:37:50;8.50;81.70
10263;DHT22;5177;50.068;8.156;2023-02-28T12:39:56;8.40;76.80
10263;DHT22;5177;50.068;8.156;2023-02-28T12:42:29;8.50;77.70
10263;DHT22;5177;50.068;8.156;2023-02-28T12:44:59;8.40;77.30
10263;DHT22;5177;50.068;8.156;2023-02-28T12:47:27;8.60;76.60
10263;DHT22;5177;50.068;8.156;2023-02-28T12:49:58;8.60;74.90
10263;DHT22;5177;50.068;8.156;2023-02-28T12:55:15;8.50;74.90
10263;DHT22;5177;50.068;8.156;2023-02-28T13:00:12;8.40;72.20
10263;DHT22;5177;50.068;8.156;2023-02-28T13:02:45;8.30;72.00
10263;DHT22;5177;50.068;8.156;2023-02-28T13:05:19;8.40;71.60
10263;DHT22;5177;50.068;8.156;2023-02-28T13:10:37;8.50;71.90
10263;DHT22;5177;50.068;8.156;2023-02-28T13:13:02;8.60;71.80
10263;DHT22;5177;50.068;8.156;2023-02-28T13:15:28;8.60;72.50
10263;DHT22;5177;50.068;8.156;2023-02-28T13:17:55;8.50;69.10
10263;DHT22;5177;50.068;8.156;2023-02-28T13:20:22;8.40;70.10
10263;DHT22;5177;50.068;8.156;2023-02-28T13:22:49;8.40;72.10
10263;DHT22;5177;50.068;8.156;2023-02-28T13:27:59;8.50;66.90
10263;DHT22;5177;50.068;8.156;2023-02-28T13:33:26;8.60;68.80
10263;DHT22;5177;50.068;8.156;2023-02-28T13:38:34;8.70;69.60
10263;DHT22;5177;50.068;8.156;2023-02-28T13:46:28;9.20;68.90
10263;DHT22;5177;50.068;8.156;2023-02-28T13:48:54;9.10;67.90
10263;DHT22;5177;50.068;8.156;2023-02-28T13:54:27;9.20;68.80
10263;DHT22;5177;50.068;8.156;2023-02-28T13:57:43;9.30;66.90
10263;DHT22;5177;50.068;8.156;2023-02-28T13:59:47;9.30;66.30
10263;DHT22;5177;50.068;8.156;2023-02-28T14:07:30;9.20;64.30
10263;DHT22;5177;50.068;8.156;2023-02-28T14:09:58;9.20;67.10
10263;DHT22;5177;50.068;8.156;2023-02-28T14:18:05;9.40;66.20
10263;DHT22;5177;50.068;8.156;2023-02-28T14:20:35;9.40;64.40
10263;DHT22;5177;50.068;8.156;2023-02-28T14:23:11;9.40;62.70
10263;DHT22;5177;50.068;8.156;2023-02-28T14:25:40;9.30;63.90
10263;DHT22;5177;50.068;8.156;2023-02-28T14:28:12;9.00;64.50
10263;DHT22;5177;50.068;8.156;2023-02-28T14:30:52;9.10;64.00
10263;DHT22;5177;50.068;8.156;2023-02-28T14:33:37;9.10;63.20
10263;DHT22;5177;50.068;8.156;2023-02-28T14:36:10;9.20;64.20
10263;DHT22;5177;50.068;8.156;2023-02-28T14:38:47;9.10;64.10
10263;DHT22;5177;50.068;8.156;2023-02-28T14:41:37;9.30;65.30
10263;DHT22;5177;50.068;8.156;2023-02-28T14:44:11;9.30;64.20
10263;DHT22;5177;50.068;8.156;2023-02-28T14:46:38;9.30;65.80
10263;DHT22;5177;50.068;8.156;2023-02-28T14:49:05;9.40;63.50
10263;DHT22;5177;50.068;8.156;2023-02-28T14:51:32;9.10;62.60
10263;DHT22;5177;50.068;8.156;2023-02-28T14:53:59;9.00;64.10
10263;DHT22;5177;50.068;8.156;2023-02-28T14:56:30;9.00;64.20
10263;DHT22;5177;50.068;8.156;2023-02-28T14:58:58;8.80;64.90
10263;DHT22;5177;50.068;8.156;2023-02-28T15:01:24;8.80;66.10
10263;DHT22;5177;50.068;8.156;2023-02-28T15:03:56;8.60;68.10
10263;DHT22;5177;50.068;8.156;2023-02-28T15:06:22;8.70;67.30
10263;DHT22;5177;50.068;8.156;2023-02-28T15:08:56;8.40;66.80
10263;DHT22;5177;50.068;8.156;2023-02-28T15:11:31;8.30;69.10
10263;DHT22;5177;50.068;8.156;2023-02-28T15:13:57;8.20;68.90
10263;DHT22;5177;50.068;8.156;2023-02-28T15:16:28;8.00;71.30
10263;DHT22;5177;50.068;8.156;2023-02-28T15:18:55;8.30;69.20
10263;DHT22;5177;50.068;8.156;2023-02-28T15:21:22;8.50;67.60
10263;DHT22;5177;50.068;8.156;2023-02-28T15:24:08;8.10;68.80
10263;DHT22;5177;50.068;8.156;2023-02-28T15:26:38;7.90;70.70
10263;DHT22;5177;50.068;8.156;2023-02-28T15:29:05;7.60;72.50
10263;DHT22;5177;50.068;8.156;2023-02-28T15:31:32;7.30;75.00
10263;DHT22;5177;50.068;8.156;2023-02-28T15:34:02;7.00;75.70
10263;DHT22;5177;50.068;8.156;2023-02-28T15:36:29;6.80;77.90
10263;DHT22;5177;50.068;8.156;2023-02-28T15:38:57;6.70;79.90
10263;DHT22;5177;50.068;8.156;2023-02-28T15:44:13;6.50;84.00
10263;DHT22;5177;50.068;8.156;2023-02-28T15:46:36;6.50;85.40
10263;DHT22;5177;50.068;8.156;2023-02-28T15:49:02;6.50;86.60
10263;DHT22;5177;50.068;8.156;2023-02-28T15:51:32;6.40;86.80
10263;DHT22;5177;50.068;8.156;2023-02-28T15:53:59;6.30;87.80
10263;DHT22;5177;50.068;8.156;2023-02-28T15:56:26;6.40;89.90
10263;DHT22;5177;50.068;8.156;2023-02-28T15:58:55;6.40;90.00
10263;DHT22;5177;50.068;8.156;2023-02-28T16:01:25;6.40;90.50
10263;DHT22;5177;50.068;8.156;2023-02-28T16:03:52;6.30;89.40
10263;DHT22;5177;50.068;8.156;2023-02-28T16:08:47;6.20;90.70
10263;DHT22;5177;50.068;8.156;2023-02-28T16:11:16;6.10;91.70
10263;DHT22;5177;50.068;8.156;2023-02-28T16:13:42;6.20;91.80
10263;DHT22;5177;50.068;8.156;2023-02-28T16:16:08;6.10;92.50
10263;DHT22;5177;50.068;8.156;2023-02-28T16:18:33;6.20;93.80
10263;DHT22;5177;50.068;8.156;2023-02-28T16:20:59;6.00;93.20
10263;DHT22;5177;50.068;8.156;2023-02-28T16:23:24;5.90;94.20
10263;DHT22;5177;50.068;8.156;2023-02-28T16:25:50;5.80;94.70
10263;DHT22;5177;50.068;8.156;2023-02-28T16:28:18;5.70;95.40
10263;DHT22;5177;50.068;8.156;2023-02-28T16:30:44;5.70;95.20
10263;DHT22;5177;50.068;8.156;2023-02-28T16:33:09;5.70;96.40
10263;DHT22;5177;50.068;8.156;2023-02-28T16:35:35;5.80;96.40
10263;DHT22;5177;50.068;8.156;2023-02-28T16:38:00;5.60;97.60
10263;DHT22;5177;50.068;8.156;2023-02-28T16:40:26;5.60;97.80
10263;DHT22;5177;50.068;8.156;2023-02-28T16:42:55;5.50;98.40
10263;DHT22;5177;50.068;8.156;2023-02-28T16:45:22;5.40;99.80
10263;DHT22;5177;50.068;8.156;2023-02-28T16:47:47;5.40;99.90
10263;DHT22;5177;50.068;8.156;2023-02-28T16:50:20;5.30;99.90
10263;DHT22;5177;50.068;8.156;2023-02-28T16:52:46;5.20;99.90
10263;DHT22;5177;50.068;8.156;2023-02-28T16:55:13;5.10;99.90
10263;DHT22;5177;50.068;8.156;2023-02-28T16:57:39;5.10;99.90
10263;DHT22;5177;50.068;8.156;2023-02-28T17:00:05;5.00;99.90
10263;DHT22;5177;50.068;8.156;2023-02-28T17:02:33;5.00;99.90
10263;DHT22;5177;50.068;8.156;2023-02-28T17:04:58;4.90;99.90
10263;DHT22;5177;50.068;8.156;2023-02-28T17:07:24;4.80;99.90
10263;DHT22;5177;50.068;8.156;2023-02-28T17:09:49;4.80;99.90
10263;DHT22;5177;50.068;8.156;2023-02-28T17:12:15;4.70;99.90
10263;DHT22;5177;50.068;8.156;2023-02-28T17:14:41;4.70;99.90
10263;DHT22;5177;50.068;8.156;2023-02-28T17:17:06;4.50;99.90
10263;DHT22;5177;50.068;8.156;2023-02-28T17:19:32;4.50;99.90
10263;DHT22;5177;50.068;8.156;2023-02-28T17:21:59;4.50;99.90
10263;DHT22;5177;50.068;8.156;2023-02-28T17:24:24;4.50;99.90
10263;DHT22;5177;50.068;8.156;2023-02-28T17:26:50;4.40;99.90
10263;DHT22;5177;50.068;8.156;2023-02-28T17:29:19;4.30;99.90
10263;DHT22;5177;50.068;8.156;2023-02-28T17:31:45;4.30;99.90
10263;DHT22;5177;50.068;8.156;2023-02-28T17:34:11;4.30;99.90
10263;DHT22;5177;50.068;8.156;2023-02-28T17:36:43;4.20;99.90
10263;DHT22;5177;50.068;8.156;2023-02-28T17:39:09;4.10;99.90
10263;DHT22;5177;50.068;8.156;2023-02-28T17:41:36;4.10;99.90
10263;DHT22;5177;50.068;8.156;2023-02-28T17:44:01;4.20;99.90
10263;DHT22;5177;50.068;8.156;2023-02-28T17:46:28;4.10;99.90
10263;DHT22;5177;50.068;8.156;2023-02-28T17:48:54;4.00;99.90
10263;DHT22;5177;50.068;8.156;2023-02-28T17:51:20;4.10;99.90
10263;DHT22;5177;50.068;8.156;2023-02-28T17:53:46;3.90;99.90
10263;DHT22;5177;50.068;8.156;2023-02-28T17:56:19;3.90;99.90
10263;DHT22;5177;50.068;8.156;2023-02-28T17:58:45;3.90;99.90
10263;DHT22;5177;50.068;8.156;2023-02-28T18:01:10;3.80;99.90